Time;durP1;ratioP1;P1;durP2;ratioP2;P2;SDS_P1;SDS_P2;PMS_P1;PMS_P2;Temp;Humidity;BMP_temperature;BMP_pressure;BME280_temperature;BME280_humidity;BME280_pressure;Samples;Min_cycle;Max_cycle;Signal;HPM_P1;HPM_P2
2023/09/26 00:00:58;;;;;;;0.90;0.90;;;;;10.60;96628.00;;;;4994810;28;20201;-58
2023/09/26 00:03:26;;;;;;;0.87;0.87;;;;;10.40;96626.00;;;;4995183;28;20304;-57
2023/09/26 00:05:56;;;;;;;1.50;1.40;;;;;10.50;96628.00;;;;4994999;28;20222;-58
2023/09/26 00:08:25;;;;;;;1.23;1.10;;;;;10.30;96632.00;;;;4977250;28;20285;-57
2023/09/26 00:10:53;;;;;;;0.90;0.90;;;;;10.40;96645.00;;;;4977019;28;20567;-57
2023/09/26 00:13:20;;;;;;;1.00;1.00;;;;;10.30;96633.00;;;;4994666;28;20272;-57
2023/09/26 00:15:48;;;;;;;4.37;1.33;;;;;10.40;96632.00;;;;4994531;28;20194;-57
2023/09/26 00:18:15;;;;;;;0.80;0.80;;;;;10.50;96629.00;;;;4994493;28;20194;-57
2023/09/26 00:20:44;;;;;;;1.40;1.30;;;;;10.50;96625.00;;;;4994426;28;20264;-57
2023/09/26 00:23:12;;;;;;;1.13;1.13;;;;;10.60;96620.00;;;;4994260;28;20256;-58
2023/09/26 00:25:40;;;;;;;0.70;0.70;;;;;10.50;96613.00;;;;4994517;28;20688;-57
2023/09/26 00:28:08;;;;;;;0.63;0.63;;;;;10.50;96612.00;;;;4994420;28;20194;-57
2023/09/26 00:30:35;;;;;;;1.10;1.10;;;;;10.50;96627.00;;;;4994388;28;20206;-58
2023/09/26 00:33:03;;;;;;;1.27;1.27;;;;;10.50;96616.00;;;;4994273;28;20225;-57
2023/09/26 00:35:30;;;;;;;0.60;0.60;;;;;10.50;96619.00;;;;4994417;28;20197;-57
2023/09/26 00:37:58;;;;;;;1.53;1.33;;;;;10.50;96618.00;;;;4994254;28;20198;-58
2023/09/26 00:40:25;;;;;;;1.57;1.47;;;;;10.50;96623.00;;;;4994484;28;20202;-57
2023/09/26 00:42:54;;;;;;;1.10;1.10;;;;;10.20;96625.00;;;;4976612;28;20762;-57
2023/09/26 00:45:21;;;;;;;1.03;1.03;;;;;10.20;96624.00;;;;4994129;28;20721;-57
2023/09/26 00:47:49;;;;;;;1.33;1.10;;;;;10.10;96621.00;;;;4993991;28;20202;-57
2023/09/26 00:50:18;;;;;;;0.87;0.87;;;;;10.00;96620.00;;;;4993952;28;20197;-56
2023/09/26 00:52:47;;;;;;;1.33;1.23;;;;;10.10;96611.00;;;;4994174;28;20210;-56
2023/09/26 00:55:18;;;;;;;1.20;1.20;;;;;10.00;96617.00;;;;4994188;28;20229;-56
2023/09/26 00:57:46;;;;;;;0.60;0.60;;;;;10.10;96611.00;;;;4993774;28;20198;-56
2023/09/26 01:00:19;;;;;;;0.80;0.80;;;;;10.20;96612.00;;;;4994107;28;20281;-57
2023/09/26 01:02:46;;;;;;;1.17;1.17;;;;;10.20;96620.00;;;;4993791;28;20217;-56
2023/09/26 01:05:14;;;;;;;1.00;1.00;;;;;10.20;96614.00;;;;4994113;28;20198;-57
2023/09/26 01:07:41;;;;;;;0.77;0.77;;;;;10.20;96610.00;;;;4993658;28;20194;-57
2023/09/26 01:10:10;;;;;;;1.47;1.37;;;;;10.00;96615.00;;;;4993664;28;20205;-57
2023/09/26 01:12:38;;;;;;;0.90;0.90;;;;;9.90;96612.00;;;;4993738;28;20245;-57
2023/09/26 01:15:07;;;;;;;1.10;1.00;;;;;9.90;96615.00;;;;4993560;28;20282;-57
2023/09/26 01:17:36;;;;;;;1.03;1.03;;;;;9.90;96617.00;;;;4993883;28;20294;-57
2023/09/26 01:20:08;;;;;;;0.90;0.90;;;;;9.90;96605.00;;;;4993577;28;20194;-57
2023/09/26 01:22:36;;;;;;;0.93;0.93;;;;;10.00;96613.00;;;;4993456;28;20222;-56
2023/09/26 01:25:06;;;;;;;1.23;1.23;;;;;9.90;96606.00;;;;4993558;28;20193;-57
2023/09/26 01:27:34;;;;;;;0.90;0.90;;;;;9.80;96623.00;;;;4993430;28;20202;-58
2023/09/26 01:30:01;;;;;;;1.50;1.40;;;;;9.70;96617.00;;;;4993498;28;20278;-57
2023/09/26 01:32:28;;;;;;;1.27;1.17;;;;;9.60;96611.00;;;;4976061;28;20214;-56
2023/09/26 01:34:56;;;;;;;1.20;1.20;;;;;9.60;96609.00;;;;4993493;28;20302;-57
2023/09/26 01:37:23;;;;;;;1.30;1.20;;;;;9.60;96617.00;;;;4993539;28;20672;-59
2023/09/26 01:39:51;;;;;;;1.10;1.10;;;;;9.70;96618.00;;;;4993409;28;20190;-56
2023/09/26 01:42:19;;;;;;;1.40;1.30;;;;;9.60;96617.00;;;;4993803;28;20229;-56
2023/09/26 01:44:47;;;;;;;1.40;1.40;;;;;9.60;96614.00;;;;4993456;28;20194;-56
2023/09/26 01:47:31;;;;;;;1.80;1.37;;;;;9.60;96611.00;;;;4993393;28;20201;-57
2023/09/26 01:49:58;;;;;;;0.80;0.80;;;;;9.60;96606.00;;;;4993585;28;20220;-56
2023/09/26 01:52:26;;;;;;;1.10;1.10;;;;;9.70;96604.00;;;;4993380;28;20213;-57
2023/09/26 01:54:54;;;;;;;0.97;0.97;;;;;9.80;96605.00;;;;4993639;28;20198;-56
2023/09/26 01:57:22;;;;;;;1.10;1.10;;;;;9.90;96596.00;;;;4993319;28;20764;-57
2023/09/26 01:59:50;;;;;;;1.00;1.00;;;;;9.80;96599.00;;;;4995875;28;20198;-57
2023/09/26 02:02:17;;;;;;;0.80;0.80;;;;;9.60;96601.00;;;;4997236;28;20227;-57
2023/09/26 02:04:44;;;;;;;0.90;0.90;;;;;9.50;96601.00;;;;4997074;28;20580;-57
2023/09/26 02:07:12;;;;;;;0.80;0.80;;;;;9.40;96606.00;;;;4996999;28;20205;-57
2023/09/26 02:09:39;;;;;;;2.40;1.73;;;;;9.40;96600.00;;;;4996860;28;20206;-58
2023/09/26 02:12:07;;;;;;;0.80;0.80;;;;;9.30;96599.00;;;;4996784;28;20752;-57
2023/09/26 02:14:36;;;;;;;1.20;1.20;;;;;9.30;96600.00;;;;4979292;28;20646;-58
2023/09/26 02:17:04;;;;;;;1.00;1.00;;;;;9.30;96593.00;;;;4996790;28;20197;-57
2023/09/26 02:19:31;;;;;;;0.90;0.90;;;;;9.30;96591.00;;;;4996652;28;20198;-57
2023/09/26 02:21:58;;;;;;;0.80;0.80;;;;;9.30;96592.00;;;;4996651;28;20213;-57
2023/09/26 02:24:26;;;;;;;1.17;1.13;;;;;9.40;96590.00;;;;4996564;28;20583;-57
2023/09/26 02:26:57;;;;;;;0.70;0.70;;;;;9.40;96583.00;;;;4996525;28;20608;-57
2023/09/26 02:29:24;;;;;;;0.83;0.83;;;;;9.20;96588.00;;;;4996538;28;20189;-57
2023/09/26 02:31:53;;;;;;;0.80;0.80;;;;;9.10;96590.00;;;;4996487;28;20214;-57
2023/09/26 02:34:22;;;;;;;1.13;1.13;;;;;9.20;96579.00;;;;4996561;28;20190;-57
2023/09/26 02:36:49;;;;;;;1.33;1.30;;;;;9.20;96578.00;;;;4996545;28;20202;-58
2023/09/26 02:39:17;;;;;;;0.87;0.87;;;;;9.20;96585.00;;;;4996269;28;20213;-57
2023/09/26 02:41:44;;;;;;;0.93;0.93;;;;;9.40;96585.00;;;;4996219;28;20685;-57
2023/09/26 02:44:12;;;;;;;0.93;0.93;;;;;9.40;96569.00;;;;4996112;28;20705;-57
2023/09/26 02:46:39;;;;;;;6.57;1.10;;;;;9.40;96573.00;;;;4978616;28;20197;-57
2023/09/26 02:49:08;;;;;;;1.07;1.07;;;;;9.30;96576.00;;;;4996402;28;20190;-57
2023/09/26 02:51:35;;;;;;;0.80;0.80;;;;;9.20;96574.00;;;;4996551;28;20580;-57
2023/09/26 02:54:03;;;;;;;1.73;1.63;;;;;9.00;96569.00;;;;4996227;28;20214;-57
2023/09/26 02:56:30;;;;;;;0.77;0.77;;;;;9.10;96569.00;;;;4995942;28;20674;-57
2023/09/26 02:58:58;;;;;;;1.43;1.07;;;;;9.00;96571.00;;;;4996150;28;20190;-57
2023/09/26 03:01:25;;;;;;;1.13;1.13;;;;;9.10;96567.00;;;;4995988;28;20213;-57
2023/09/26 03:03:53;;;;;;;0.90;0.90;;;;;8.90;96579.00;;;;4996175;28;20344;-57
2023/09/26 03:06:22;;;;;;;1.10;1.10;;;;;9.00;96573.00;;;;4995772;28;20198;-57
2023/09/26 03:08:49;;;;;;;1.33;1.30;;;;;9.00;96572.00;;;;4996745;28;20213;-58
2023/09/26 03:11:17;;;;;;;0.80;0.80;;;;;9.00;96567.00;;;;4995103;28;20214;-57
2023/09/26 03:13:44;;;;;;;1.17;1.17;;;;;9.00;96565.00;;;;4995774;28;20235;-57
2023/09/26 03:16:14;;;;;;;0.87;0.87;;;;;9.00;96571.00;;;;4995837;28;20205;-57
2023/09/26 03:18:41;;;;;;;0.90;0.90;;;;;8.90;96572.00;;;;4995609;28;20190;-57
2023/09/26 03:21:08;;;;;;;1.03;1.03;;;;;8.90;96569.00;;;;4995561;28;20214;-57
2023/09/26 03:23:37;;;;;;;0.70;0.70;;;;;9.00;96565.00;;;;4995951;28;20206;-57
2023/09/26 03:26:12;;;;;;;1.20;1.20;;;;;9.00;96570.00;;;;4995401;28;20673;-57
2023/09/26 03:28:40;;;;;;;3.40;1.27;;;;;9.00;96576.00;;;;4995910;28;20287;-57
2023/09/26 03:31:08;;;;;;;0.90;0.90;;;;;9.00;96561.00;;;;4995767;28;20214;-59
2023/09/26 03:33:36;;;;;;;1.03;1.03;;;;;9.00;96566.00;;;;4995612;28;20253;-58
2023/09/26 03:36:04;;;;;;;1.10;1.10;;;;;8.90;96561.00;;;;4995421;28;20529;-59
2023/09/26 03:38:31;;;;;;;1.27;1.27;;;;;8.90;96560.00;;;;4995164;28;20230;-59
2023/09/26 03:41:01;;;;;;;0.70;0.70;;;;;8.90;96569.00;;;;4995438;28;20186;-58
2023/09/26 03:43:29;;;;;;;1.90;1.30;;;;;8.80;96559.00;;;;4995105;28;20214;-58
2023/09/26 03:46:01;;;;;;;0.73;0.73;;;;;8.80;96549.00;;;;4977640;28;20194;-58
2023/09/26 03:48:29;;;;;;;0.90;0.90;;;;;8.90;96558.00;;;;4995319;28;20193;-58
2023/09/26 03:50:56;;;;;;;1.17;1.17;;;;;8.80;96559.00;;;;4994930;28;20190;-58
2023/09/26 03:53:24;;;;;;;0.90;0.90;;;;;8.60;96559.00;;;;4994913;28;20190;-58
2023/09/26 03:55:55;;;;;;;0.90;0.90;;;;;8.50;96559.00;;;;4994787;28;20205;-58
2023/09/26 03:58:24;;;;;;;1.00;1.00;;;;;8.30;96558.00;;;;4995000;28;20680;-57
2023/09/26 04:00:51;;;;;;;1.00;1.00;;;;;8.40;96559.00;;;;4994636;28;20555;-57
2023/09/26 04:03:20;;;;;;;1.37;1.27;;;;;8.50;96555.00;;;;4995030;28;20206;-58
2023/09/26 04:05:48;;;;;;;1.00;1.00;;;;;8.50;96557.00;;;;4994871;28;20198;-57
2023/09/26 04:08:16;;;;;;;0.70;0.70;;;;;8.50;96558.00;;;;4994865;28;20193;-57
2023/09/26 04:10:43;;;;;;;1.20;1.20;;;;;8.50;96555.00;;;;4994606;28;20198;-57
2023/09/26 04:13:11;;;;;;;1.63;1.53;;;;;8.50;96549.00;;;;4994614;28;20197;-57
2023/09/26 04:15:40;;;;;;;1.63;1.10;;;;;8.30;96554.00;;;;4977009;28;20221;-57
2023/09/26 04:18:07;;;;;;;1.43;1.33;;;;;8.20;96558.00;;;;4994675;28;20200;-57
2023/09/26 04:20:37;;;;;;;0.80;0.80;;;;;8.20;96551.00;;;;4994504;28;20240;-57
2023/09/26 04:23:04;;;;;;;0.83;0.83;;;;;8.20;96547.00;;;;4993441;28;20220;-57
2023/09/26 04:25:32;;;;;;;2.97;1.07;;;;;8.20;96545.00;;;;4994269;28;20245;-58
2023/09/26 04:28:00;;;;;;;1.20;1.20;;;;;8.20;96545.00;;;;4994418;28;20197;-57
2023/09/26 04:30:27;;;;;;;0.80;0.80;;;;;8.40;96536.00;;;;4994251;28;20194;-57
2023/09/26 04:32:56;;;;;;;1.40;1.30;;;;;8.30;96534.00;;;;4994383;28;20712;-57
2023/09/26 04:35:23;;;;;;;1.17;1.10;;;;;8.20;96531.00;;;;4994139;28;20297;-57
2023/09/26 04:37:52;;;;;;;1.73;1.63;;;;;7.90;96530.00;;;;4976531;28;20197;-57
2023/09/26 04:40:19;;;;;;;3.67;2.47;;;;;8.00;96527.00;;;;4994148;28;20198;-57
2023/09/26 04:42:49;;;;;;;1.80;1.67;;;;;8.20;96534.00;;;;4994073;28;20210;-57
2023/09/26 04:45:17;;;;;;;1.63;1.53;;;;;8.30;96544.00;;;;4994657;28;20186;-57
2023/09/26 04:47:44;;;;;;;1.00;1.00;;;;;8.10;96532.00;;;;4995093;28;20198;-57
2023/09/26 04:50:13;;;;;;;1.63;1.50;;;;;8.00;96536.00;;;;4994923;28;20194;-57
2023/09/26 04:52:40;;;;;;;2.03;1.93;;;;;7.90;96539.00;;;;4994537;28;20210;-57
2023/09/26 04:55:08;;;;;;;0.90;0.90;;;;;8.00;96534.00;;;;4993757;28;20225;-57
2023/09/26 04:57:36;;;;;;;0.80;0.80;;;;;8.00;96528.00;;;;4976450;28;20198;-57
2023/09/26 05:00:07;;;;;;;2.83;2.30;;;;;8.00;96534.00;;;;4994379;28;20252;-57
2023/09/26 05:02:35;;;;;;;1.20;1.20;;;;;8.10;96530.00;;;;4993984;28;20213;-57
2023/09/26 05:05:03;;;;;;;2.60;1.60;;;;;8.00;96536.00;;;;4976368;28;20233;-57
2023/09/26 05:07:32;;;;;;;0.97;0.97;;;;;8.00;96529.00;;;;4994451;28;20194;-57
2023/09/26 05:10:00;;;;;;;0.70;0.70;;;;;8.00;96541.00;;;;4993680;28;20217;-57
2023/09/26 05:12:27;;;;;;;3.93;1.80;;;;;8.00;96528.00;;;;4993791;28;20700;-57
2023/09/26 05:14:56;;;;;;;1.03;1.00;;;;;8.00;96531.00;;;;4976115;28;20229;-58
2023/09/26 05:17:24;;;;;;;0.90;0.90;;;;;8.00;96534.00;;;;4993570;28;20200;-57
2023/09/26 05:19:52;;;;;;;0.80;0.80;;;;;8.00;96532.00;;;;4993729;28;20201;-57
2023/09/26 05:22:19;;;;;;;1.27;1.27;;;;;8.00;96531.00;;;;4993975;28;20239;-57
2023/09/26 05:24:48;;;;;;;1.63;1.53;;;;;8.00;96538.00;;;;4993747;28;20202;-59
2023/09/26 05:27:15;;;;;;;0.80;0.80;;;;;7.90;96537.00;;;;4993782;28;20194;-58
2023/09/26 05:29:43;;;;;;;0.90;0.90;;;;;7.90;96543.00;;;;4993537;28;20198;-57
2023/09/26 05:32:10;;;;;;;1.17;1.17;;;;;7.90;96543.00;;;;4993338;28;20316;-58
2023/09/26 05:34:37;;;;;;;0.90;0.90;;;;;7.90;96551.00;;;;4995895;28;20222;-57
2023/09/26 05:37:05;;;;;;;1.03;1.03;;;;;8.00;96553.00;;;;4980125;28;20202;-57
2023/09/26 05:39:32;;;;;;;1.27;1.17;;;;;7.90;96545.00;;;;4998493;28;20202;-58
2023/09/26 05:42:01;;;;;;;0.93;0.93;;;;;7.90;96548.00;;;;4997662;28;20206;-57
2023/09/26 05:44:29;;;;;;;0.77;0.77;;;;;7.90;96539.00;;;;4997429;28;20559;-58
2023/09/26 05:46:56;;;;;;;1.13;1.13;;;;;8.00;96541.00;;;;4997351;28;20220;-57
2023/09/26 05:49:23;;;;;;;0.90;0.90;;;;;8.10;96543.00;;;;4997251;28;20553;-58
2023/09/26 05:51:51;;;;;;;0.80;0.80;;;;;8.00;96545.00;;;;4997390;28;20214;-57
2023/09/26 05:54:18;;;;;;;0.90;0.90;;;;;8.00;96550.00;;;;4997198;28;20221;-57
2023/09/26 05:56:46;;;;;;;0.90;0.90;;;;;8.10;96550.00;;;;4997287;28;20206;-57
2023/09/26 05:59:14;;;;;;;0.77;0.77;;;;;8.20;96556.00;;;;4997460;28;20737;-57
2023/09/26 06:01:42;;;;;;;1.87;1.13;;;;;8.20;96552.00;;;;4996969;28;20356;-57
2023/09/26 06:04:10;;;;;;;0.70;0.70;;;;;8.20;96555.00;;;;4997047;28;20229;-58
2023/09/26 06:06:37;;;;;;;0.63;0.63;;;;;8.20;96557.00;;;;4997371;28;20296;-58
2023/09/26 06:09:05;;;;;;;0.80;0.80;;;;;8.10;96552.00;;;;5000777;28;20202;-57
2023/09/26 06:11:33;;;;;;;0.87;0.87;;;;;8.20;96552.00;;;;5000395;28;20292;-61
2023/09/26 06:14:00;;;;;;;0.83;0.83;;;;;8.30;96549.00;;;;5000576;28;20283;-60
2023/09/26 06:16:29;;;;;;;0.87;0.87;;;;;8.40;96547.00;;;;5010086;28;20665;-61
2023/09/26 06:18:56;;;;;;;0.90;0.90;;;;;8.20;96546.00;;;;5013867;28;20691;-61
2023/09/26 06:21:25;;;;;;;0.70;0.70;;;;;8.30;96545.00;;;;4995474;28;20222;-61
2023/09/26 06:23:52;;;;;;;1.37;1.13;;;;;8.40;96540.00;;;;4993975;28;20202;-59
2023/09/26 06:26:19;;;;;;;0.97;0.97;;;;;8.50;96545.00;;;;4994039;28;20665;-58
2023/09/26 06:28:47;;;;;;;1.20;1.10;;;;;8.60;96558.00;;;;4994762;28;20198;-57
2023/09/26 06:31:14;;;;;;;1.10;1.00;;;;;8.60;96550.00;;;;4994741;28;20221;-58
2023/09/26 06:33:43;;;;;;;0.70;0.70;;;;;8.60;96556.00;;;;4994649;28;20202;-57
2023/09/26 06:36:15;;;;;;;0.80;0.80;;;;;8.80;96559.00;;;;5010753;28;20221;-57
2023/09/26 06:38:42;;;;;;;0.90;0.90;;;;;9.00;96548.00;;;;5013949;28;20197;-58
2023/09/26 06:41:10;;;;;;;0.70;0.70;;;;;9.00;96549.00;;;;5014259;28;20236;-58
2023/09/26 06:43:37;;;;;;;1.10;1.10;;;;;9.20;96545.00;;;;5014202;28;20502;-59
2023/09/26 06:46:06;;;;;;;1.00;1.00;;;;;9.20;96550.00;;;;5013326;28;20201;-58
2023/09/26 06:48:35;;;;;;;4.03;1.87;;;;;9.40;96544.00;;;;5014161;28;20668;-57
2023/09/26 06:51:04;;;;;;;0.80;0.80;;;;;9.50;96546.00;;;;5014151;28;20221;-57
2023/09/26 06:53:31;;;;;;;1.90;0.90;;;;;9.60;96554.00;;;;5013991;28;20204;-57
2023/09/26 06:56:03;;;;;;;1.30;1.30;;;;;9.60;96544.00;;;;5014107;28;20233;-58
2023/09/26 06:58:31;;;;;;;0.80;0.80;;;;;9.70;96550.00;;;;5006114;28;20220;-56
2023/09/26 07:00:58;;;;;;;0.90;0.90;;;;;9.60;96549.00;;;;4994173;28;20201;-56
2023/09/26 07:03:28;;;;;;;1.03;1.03;;;;;9.70;96550.00;;;;4994059;28;20960;-56
2023/09/26 07:05:55;;;;;;;0.80;0.80;;;;;9.70;96544.00;;;;4993419;28;20226;-57
2023/09/26 07:08:25;;;;;;;0.80;0.80;;;;;9.80;96550.00;;;;4994139;28;20209;-57
2023/09/26 07:10:53;;;;;;;0.70;0.70;;;;;9.70;96548.00;;;;4994086;28;20682;-58
2023/09/26 07:13:20;;;;;;;0.97;0.97;;;;;9.70;96551.00;;;;4993266;28;20209;-56
2023/09/26 07:15:58;;;;;;;0.83;0.83;;;;;9.90;96545.00;;;;4994050;28;20214;-57
2023/09/26 07:18:25;;;;;;;0.97;0.97;;;;;10.00;96546.00;;;;5009290;28;20189;-56
2023/09/26 07:20:53;;;;;;;0.93;0.93;;;;;10.20;96542.00;;;;5003989;28;20205;-56
2023/09/26 07:23:20;;;;;;;1.10;1.10;;;;;10.40;96551.00;;;;4994534;28;20201;-56
2023/09/26 07:25:49;;;;;;;0.70;0.70;;;;;10.50;96549.00;;;;5004685;28;20225;-56
2023/09/26 07:28:16;;;;;;;0.70;0.70;;;;;10.60;96544.00;;;;4998660;28;20209;-56
2023/09/26 07:30:47;;;;;;;1.53;0.90;;;;;10.80;96551.00;;;;4983477;28;20215;-56
2023/09/26 07:33:15;;;;;;;1.90;1.17;;;;;10.90;96552.00;;;;5013322;28;20201;-56
2023/09/26 07:35:42;;;;;;;1.23;1.00;;;;;10.90;96551.00;;;;4993760;28;20690;-56
2023/09/26 07:38:09;;;;;;;1.00;1.00;;;;;11.00;96552.00;;;;4994111;28;20285;-56
2023/09/26 07:40:37;;;;;;;1.07;1.07;;;;;11.10;96548.00;;;;4999328;28;20201;-56
2023/09/26 07:43:06;;;;;;;1.07;1.07;;;;;11.10;96548.00;;;;5013051;28;20221;-57
2023/09/26 07:45:33;;;;;;;0.90;0.90;;;;;11.20;96551.00;;;;5012998;28;20197;-56
2023/09/26 07:48:00;;;;;;;0.87;0.87;;;;;11.20;96546.00;;;;5012899;28;20197;-56
2023/09/26 07:50:28;;;;;;;1.57;1.47;;;;;11.50;96545.00;;;;4997007;28;20572;-58
2023/09/26 07:52:55;;;;;;;0.90;0.90;;;;;11.50;96551.00;;;;4990123;28;20229;-56
2023/09/26 07:55:24;;;;;;;1.00;1.00;;;;;11.60;96547.00;;;;5012778;28;20228;-59
2023/09/26 07:57:51;;;;;;;0.90;0.90;;;;;11.70;96550.00;;;;5012883;28;20182;-56
2023/09/26 08:00:21;;;;;;;1.00;1.00;;;;;11.90;96552.00;;;;5011169;28;20625;-56
2023/09/26 08:02:48;;;;;;;1.10;1.10;;;;;12.00;96547.00;;;;4993118;28;20228;-56
2023/09/26 08:05:18;;;;;;;1.17;1.17;;;;;12.20;96558.00;;;;4993360;28;20202;-56
2023/09/26 08:07:45;;;;;;;1.33;1.33;;;;;12.50;96551.00;;;;4993355;28;20221;-56
2023/09/26 08:10:13;;;;;;;1.57;1.47;;;;;12.50;96550.00;;;;4992916;28;20203;-57
2023/09/26 08:12:41;;;;;;;1.23;1.13;;;;;12.60;96550.00;;;;5004428;28;20249;-57
2023/09/26 08:15:09;;;;;;;0.90;0.90;;;;;12.80;96550.00;;;;4994644;28;20308;-57
2023/09/26 08:17:38;;;;;;;0.80;0.80;;;;;13.00;96550.00;;;;5012296;28;20640;-56
2023/09/26 08:20:08;;;;;;;0.90;0.90;;;;;13.20;96551.00;;;;5012556;28;20201;-56
2023/09/26 08:22:36;;;;;;;1.10;1.10;;;;;13.40;96546.00;;;;5012026;28;20287;-57
2023/09/26 08:25:04;;;;;;;1.17;1.17;;;;;13.40;96549.00;;;;4992745;28;20209;-57
2023/09/26 08:27:31;;;;;;;1.07;1.07;;;;;13.60;96556.00;;;;4992531;28;20217;-57
2023/09/26 08:30:00;;;;;;;0.93;0.93;;;;;13.90;96555.00;;;;5010965;28;20736;-57
2023/09/26 08:32:28;;;;;;;1.10;1.10;;;;;14.00;96558.00;;;;5011674;28;20300;-57
2023/09/26 08:34:59;;;;;;;1.40;1.00;;;;;14.10;96547.00;;;;5012250;28;20213;-56
2023/09/26 08:37:26;;;;;;;1.10;1.10;;;;;14.30;96552.00;;;;5009414;28;20196;-56
2023/09/26 08:39:54;;;;;;;1.10;1.10;;;;;14.50;96551.00;;;;5012255;28;20197;-56
2023/09/26 08:42:28;;;;;;;1.43;1.33;;;;;14.50;96550.00;;;;4997599;28;20221;-56
2023/09/26 08:44:56;;;;;;;1.17;1.17;;;;;14.80;96541.00;;;;5007663;28;20198;-56
2023/09/26 08:47:27;;;;;;;0.90;0.90;;;;;14.80;96540.00;;;;4991691;28;20208;-56
2023/09/26 08:49:59;;;;;;;3.13;1.83;;;;;15.00;96549.00;;;;4992969;28;20225;-56
2023/09/26 08:52:27;;;;;;;0.90;0.90;;;;;15.20;96540.00;;;;4991818;28;20222;-56
2023/09/26 08:54:54;;;;;;;1.43;1.33;;;;;15.40;96542.00;;;;5007486;28;20205;-56
2023/09/26 08:57:23;;;;;;;0.93;0.93;;;;;15.40;96536.00;;;;4975732;28;20233;-56
2023/09/26 08:59:52;;;;;;;1.57;1.47;;;;;15.50;96537.00;;;;4997184;28;20201;-57
2023/09/26 09:02:19;;;;;;;1.97;1.83;;;;;15.70;96543.00;;;;5011097;28;20700;-57
2023/09/26 09:04:47;;;;;;;0.90;0.90;;;;;15.80;96545.00;;;;5012075;28;20201;-57
2023/09/26 09:07:16;;;;;;;1.00;1.00;;;;;16.00;96541.00;;;;5011151;28;20576;-57
2023/09/26 09:10:04;;;;;;;1.07;1.07;;;;;16.30;96546.00;;;;5011642;28;20280;-57
2023/09/26 09:12:32;;;;;;;0.87;0.87;;;;;16.40;96535.00;;;;4992387;28;20331;-58
2023/09/26 09:14:59;;;;;;;1.07;1.07;;;;;16.60;96543.00;;;;4998918;28;20201;-57
2023/09/26 09:17:38;;;;;;;1.40;1.30;;;;;16.50;96543.00;;;;4991552;28;20282;-57
2023/09/26 09:20:07;;;;;;;3.77;2.00;;;;;16.60;96545.00;;;;5008943;28;20584;-57
2023/09/26 09:22:36;;;;;;;1.07;1.07;;;;;16.70;96538.00;;;;4999502;28;20229;-57
2023/09/26 09:25:04;;;;;;;0.87;0.87;;;;;16.90;96534.00;;;;4992279;28;20194;-57
2023/09/26 09:27:33;;;;;;;1.27;1.27;;;;;17.00;96536.00;;;;4991490;28;20241;-57
2023/09/26 09:30:08;;;;;;;1.43;1.33;;;;;17.10;96537.00;;;;4991923;28;20213;-57
2023/09/26 09:32:36;;;;;;;1.10;1.00;;;;;17.30;96541.00;;;;4988830;28;20233;-57
2023/09/26 09:35:04;;;;;;;0.77;0.77;;;;;17.20;96527.00;;;;4991808;28;20280;-57
2023/09/26 09:37:32;;;;;;;1.63;1.53;;;;;17.40;96530.00;;;;5011283;28;20197;-57
2023/09/26 09:40:00;;;;;;;1.50;1.10;;;;;17.60;96521.00;;;;5011604;28;20193;-57
2023/09/26 09:42:28;;;;;;;1.10;1.07;;;;;17.80;96520.00;;;;5011408;28;20232;-57
2023/09/26 09:44:56;;;;;;;1.83;1.57;;;;;18.00;96516.00;;;;5002820;28;20206;-57
2023/09/26 09:47:25;;;;;;;0.80;0.80;;;;;18.10;96514.00;;;;4994666;28;20197;-58
2023/09/26 09:49:53;;;;;;;0.70;0.70;;;;;18.10;96514.00;;;;5011473;28;20193;-57
2023/09/26 09:52:22;;;;;;;0.80;0.80;;;;;18.10;96515.00;;;;5009901;28;20225;-61
2023/09/26 09:54:52;;;;;;;1.03;1.03;;;;;18.50;96517.00;;;;5011847;28;20197;-57
2023/09/26 09:57:24;;;;;;;1.63;1.53;;;;;18.70;96515.00;;;;5011287;28;20288;-57
2023/09/26 09:59:52;;;;;;;1.10;1.10;;;;;18.80;96523.00;;;;4991814;28;20194;-58
2023/09/26 10:02:22;;;;;;;1.20;1.03;;;;;18.90;96520.00;;;;5005657;28;20228;-58
2023/09/26 10:04:55;;;;;;;0.80;0.80;;;;;18.90;96509.00;;;;5011126;28;20202;-60
2023/09/26 10:07:24;;;;;;;1.03;0.97;;;;;19.00;96504.00;;;;4993610;28;20208;-57
2023/09/26 10:09:53;;;;;;;2.23;2.03;;;;;19.00;96499.00;;;;4993034;28;20201;-56
2023/09/26 10:12:24;;;;;;;1.13;1.10;;;;;19.30;96498.00;;;;5011161;28;20577;-56
2023/09/26 10:15:03;;;;;;;0.70;0.70;;;;;19.40;96493.00;;;;4991078;28;20200;-56
2023/09/26 10:17:45;;;;;;;1.30;1.30;;;;;19.40;96497.00;;;;4990664;28;20189;-57
2023/09/26 10:20:14;;;;;;;1.13;1.03;;;;;19.70;96497.00;;;;4991901;28;20194;-57
2023/09/26 10:22:43;;;;;;;0.70;0.70;;;;;19.90;96499.00;;;;4994914;28;20245;-57
2023/09/26 10:25:18;;;;;;;1.50;1.40;;;;;20.20;96487.00;;;;4995056;28;20202;-57
2023/09/26 10:27:48;;;;;;;0.93;0.93;;;;;20.20;96494.00;;;;4995305;28;20244;-57
2023/09/26 10:30:15;;;;;;;0.73;0.73;;;;;20.30;96491.00;;;;5001221;28;20693;-57
2023/09/26 10:32:44;;;;;;;0.80;0.80;;;;;20.70;96493.00;;;;5011758;28;20253;-58
2023/09/26 10:35:28;;;;;;;0.90;0.90;;;;;20.60;96491.00;;;;5010655;28;20193;-58
2023/09/26 10:38:07;;;;;;;1.00;1.00;;;;;20.80;96485.00;;;;5009854;28;20205;-57
2023/09/26 10:40:34;;;;;;;0.53;0.53;;;;;20.80;96485.00;;;;5001670;28;20205;-57
2023/09/26 10:43:04;;;;;;;3.30;0.90;;;;;21.00;96469.00;;;;4995918;28;20226;-59
2023/09/26 10:45:31;;;;;;;0.60;0.60;;;;;21.10;96474.00;;;;4995083;28;20201;-60
2023/09/26 10:48:04;;;;;;;0.90;0.90;;;;;21.30;96473.00;;;;4995002;28;20205;-61
2023/09/26 10:50:32;;;;;;;0.60;0.60;;;;;21.50;96475.00;;;;4994272;28;20200;-57
2023/09/26 10:53:00;;;;;;;0.70;0.70;;;;;21.50;96470.00;;;;4994878;28;20226;-57
2023/09/26 10:55:28;;;;;;;0.70;0.70;;;;;21.60;96467.00;;;;5001003;28;20284;-57
2023/09/26 10:57:57;;;;;;;1.60;0.80;;;;;21.60;96464.00;;;;5013179;28;20193;-57
2023/09/26 11:00:26;;;;;;;0.60;0.60;;;;;21.60;96460.00;;;;5013420;28;20193;-57
2023/09/26 11:02:53;;;;;;;0.90;0.90;;;;;21.80;96468.00;;;;5014084;28;20216;-57
2023/09/26 11:05:21;;;;;;;0.90;0.90;;;;;22.00;96468.00;;;;5005682;28;20240;-57
2023/09/26 11:07:50;;;;;;;0.93;0.93;;;;;22.00;96463.00;;;;4995750;28;20202;-58
2023/09/26 11:10:17;;;;;;;0.90;0.90;;;;;22.20;96468.00;;;;5010204;28;20618;-58
2023/09/26 11:12:45;;;;;;;0.70;0.70;;;;;22.10;96454.00;;;;5015043;28;20221;-58
2023/09/26 11:15:12;;;;;;;1.20;1.15;;;;;22.00;96455.00;;;;5014874;28;20198;-57
2023/09/26 11:17:41;;;;;;;0.50;0.50;;;;;21.80;96453.00;;;;5014761;28;20213;-56
2023/09/26 11:20:11;;;;;;;0.70;0.70;;;;;22.40;96452.00;;;;5014998;28;20264;-57
2023/09/26 11:22:52;;;;;;;0.80;0.80;;;;;22.50;96467.00;;;;5015032;28;20225;-57
2023/09/26 11:25:19;;;;;;;0.50;0.50;;;;;22.50;96457.00;;;;5014616;28;20192;-55
2023/09/26 11:27:48;;;;;;;0.60;0.60;;;;;22.80;96467.00;;;;5015103;28;20190;-56
2023/09/26 11:30:17;;;;;;;0.60;0.60;;;;;22.90;96467.00;;;;5015088;28;20201;-56
2023/09/26 11:32:50;;;;;;;1.08;1.08;;;;;22.70;96466.00;;;;5014558;28;20362;-56
2023/09/26 11:35:19;;;;;;;0.60;0.60;;;;;22.80;96464.00;;;;5012011;28;21617;-56
2023/09/26 11:37:52;;;;;;;1.02;1.02;;;;;23.00;96451.00;;;;4994928;28;20225;-56
2023/09/26 11:40:23;;;;;;;0.40;0.40;;;;;22.60;96457.00;;;;5010448;28;20194;-56
2023/09/26 11:42:55;;;;;;;1.65;1.25;;;;;22.70;96458.00;;;;5010769;28;20224;-57
2023/09/26 11:45:24;;;;;;;0.63;0.63;;;;;23.00;96461.00;;;;5001155;28;20209;-59
2023/09/26 11:47:54;;;;;;;0.60;0.60;;;;;23.20;96457.00;;;;4994556;28;20198;-56
2023/09/26 11:50:22;;;;;;;0.50;0.50;;;;;23.50;96449.00;;;;4993163;28;20196;-56
2023/09/26 11:52:51;;;;;;;0.90;0.90;;;;;23.50;96455.00;;;;4993686;28;20226;-56
2023/09/26 11:55:19;;;;;;;3.42;1.42;;;;;23.80;96452.00;;;;4992952;28;20205;-56
2023/09/26 11:57:49;;;;;;;1.05;1.05;;;;;23.60;96444.00;;;;4993443;28;20222;-56
2023/09/26 12:00:17;;;;;;;0.90;0.90;;;;;23.70;96444.00;;;;5003571;28;20285;-56
2023/09/26 12:02:45;;;;;;;0.50;0.50;;;;;24.00;96443.00;;;;5012675;28;20692;-56
2023/09/26 12:05:15;;;;;;;1.50;1.40;;;;;24.20;96442.00;;;;5011512;28;20201;-56
2023/09/26 12:07:43;;;;;;;0.70;0.70;;;;;24.30;96431.00;;;;5011309;28;20556;-57
2023/09/26 12:10:12;;;;;;;0.82;0.82;;;;;24.20;96431.00;;;;5012600;28;20201;-56
2023/09/26 12:12:39;;;;;;;0.80;0.80;;;;;24.60;96440.00;;;;5012384;28;20228;-56
2023/09/26 12:15:21;;;;;;;0.77;0.77;;;;;24.60;96440.00;;;;5012715;28;20256;-56
2023/09/26 12:17:49;;;;;;;1.00;1.00;;;;;24.30;96437.00;;;;4994737;28;20680;-58
2023/09/26 12:20:21;;;;;;;0.98;0.98;;;;;24.30;96429.00;;;;5003844;28;20576;-57
2023/09/26 12:22:49;;;;;;;0.70;0.70;;;;;24.40;96431.00;;;;4992976;28;20252;-57
2023/09/26 12:25:17;;;;;;;0.85;0.80;;;;;24.70;96428.00;;;;5012315;28;20702;-57
2023/09/26 12:27:45;;;;;;;0.57;0.57;;;;;24.90;96425.00;;;;5012546;28;20193;-57
2023/09/26 12:30:13;;;;;;;0.60;0.60;;;;;25.10;96419.00;;;;5012294;28;20205;-58